createdAt,value
2023-05-24T00:00:00.169Z,1025.2
2023-05-24T00:05:00.588Z,1025.2
2023-05-24T00:10:00.984Z,1025.2
2023-05-24T00:15:00.414Z,1025.2
2023-05-24T00:20:00.692Z,1025.1
2023-05-24T00:25:00.576Z,1025
2023-05-24T00:30:00.337Z,1025
2023-05-24T00:35:00.459Z,1025
2023-05-24T00:40:00.497Z,1025
2023-05-24T00:45:00.590Z,1025
2023-05-24T00:50:00.078Z,1025
2023-05-24T00:55:00.205Z,1025
2023-05-24T01:00:00.207Z,1025
2023-05-24T01:05:00.539Z,1025
2023-05-24T01:10:00.071Z,1025
2023-05-24T01:15:00.165Z,1025
2023-05-24T01:20:00.331Z,1025
2023-05-24T01:25:00.201Z,1024.9
2023-05-24T01:30:00.245Z,1024.9
2023-05-24T01:35:00.636Z,1025
2023-05-24T01:40:00.369Z,1025
2023-05-24T01:45:00.147Z,1025
2023-05-24T01:50:05.975Z,1024.9
2023-05-24T01:54:59.977Z,1024.9
2023-05-24T02:00:00.161Z,1024.9
2023-05-24T02:05:00.435Z,1024.9
2023-05-24T02:10:00.075Z,1024.8
2023-05-24T02:15:00.255Z,1024.8
2023-05-24T02:20:00.307Z,1024.8
2023-05-24T02:24:59.912Z,1024.8
2023-05-24T02:30:00.185Z,1024.8
2023-05-24T02:34:59.998Z,1024.9
2023-05-24T02:40:00.306Z,1024.9
2023-05-24T02:45:00.138Z,1024.9
2023-05-24T02:50:00.230Z,1024.9
2023-05-24T02:54:59.958Z,1024.9
2023-05-24T03:00:00.691Z,1024.8
2023-05-24T03:05:00.340Z,1024.9
2023-05-24T03:10:00.196Z,1024.9
2023-05-24T03:14:59.988Z,1024.9
2023-05-24T03:19:59.999Z,1024.8
2023-05-24T03:24:59.981Z,1024.8
2023-05-24T03:30:00.337Z,1024.8
2023-05-24T03:35:00.132Z,1024.9
2023-05-24T03:39:59.891Z,1024.9
2023-05-24T03:44:59.874Z,1024.9
2023-05-24T03:50:00.446Z,1024.8
2023-05-24T03:55:00.277Z,1024.7
2023-05-24T03:59:59.913Z,1024.8
2023-05-24T04:05:00.041Z,1024.7
2023-05-24T04:09:59.897Z,1024.7
2023-05-24T04:14:59.812Z,1024.7
2023-05-24T04:20:00.236Z,1024.7
2023-05-24T04:25:00.049Z,1024.7
2023-05-24T04:30:00.150Z,1024.8
2023-05-24T04:35:00.073Z,1024.7
2023-05-24T04:39:59.968Z,1024.8
2023-05-24T04:45:00.173Z,1024.7
2023-05-24T04:50:00.070Z,1024.7
2023-05-24T04:54:59.788Z,1024.7
2023-05-24T04:59:59.893Z,1024.8
2023-05-24T05:04:59.861Z,1024.8
2023-05-24T05:09:59.926Z,1024.8
2023-05-24T05:14:59.966Z,1024.8
2023-05-24T05:20:00.347Z,1024.9
2023-05-24T05:24:59.837Z,1024.8
2023-05-24T05:30:00.083Z,1024.9
2023-05-24T05:34:59.936Z,1024.9
2023-05-24T05:39:59.873Z,1024.9
2023-05-24T05:45:00.067Z,1025
2023-05-24T05:50:00.062Z,1025
2023-05-24T05:55:00.171Z,1025
2023-05-24T05:59:59.898Z,1025
2023-05-24T06:05:00.157Z,1025
2023-05-24T06:09:59.952Z,1025
2023-05-24T06:15:00.029Z,1025
2023-05-24T06:19:59.785Z,1025
2023-05-24T06:24:59.743Z,1025.1
2023-05-24T06:29:59.796Z,1025.1
2023-05-24T06:35:00.003Z,1025.1
2023-05-24T06:40:00.366Z,1025.1
2023-05-24T06:44:59.819Z,1025.1
2023-05-24T06:49:59.756Z,1025.1
2023-05-24T06:54:59.873Z,1025.1
2023-05-24T06:59:59.990Z,1025.2
2023-05-24T07:05:00.009Z,1025.2
2023-05-24T07:09:59.864Z,1025.2
2023-05-24T07:14:59.998Z,1025.2
2023-05-24T07:19:59.917Z,1025.2
2023-05-24T07:24:59.740Z,1025.3
2023-05-24T07:29:59.998Z,1025.2
2023-05-24T07:34:59.873Z,1025.2
2023-05-24T07:39:59.888Z,1025.2
2023-05-24T07:44:59.926Z,1025.2
2023-05-24T07:49:59.673Z,1025.3
2023-05-24T07:54:59.736Z,1025.3
2023-05-24T07:59:59.821Z,1025.2
2023-05-24T08:04:59.873Z,1025.3
2023-05-24T08:09:59.931Z,1025.2
2023-05-24T08:14:59.787Z,1025.2
2023-05-24T08:19:59.862Z,1025.2
2023-05-24T08:24:59.710Z,1025.2
2023-05-24T08:29:59.774Z,1025.3
2023-05-24T08:35:07.234Z,1025.2
2023-05-24T08:40:00.000Z,1025.2
2023-05-24T08:44:59.905Z,1025.2
2023-05-24T08:50:00.279Z,1025.2
2023-05-24T08:55:00.265Z,1025.2
2023-05-24T08:59:59.818Z,1025.2
2023-05-24T09:04:59.879Z,1025.1
2023-05-24T09:10:04.750Z,1025.1
2023-05-24T09:15:00.169Z,1025.1
2023-05-24T09:20:00.204Z,1025.2
2023-05-24T09:25:00.661Z,1025.2
2023-05-24T09:30:00.025Z,1025.2
2023-05-24T09:34:59.953Z,1025.1
2023-05-24T09:39:59.877Z,1025
2023-05-24T09:44:59.593Z,1025
2023-05-24T09:49:59.660Z,1025
2023-05-24T09:54:59.773Z,1025
2023-05-24T10:00:03.759Z,1025
2023-05-24T10:04:59.677Z,1025
2023-05-24T10:09:59.692Z,1025
2023-05-24T10:14:59.675Z,1025
2023-05-24T10:19:59.623Z,1025
2023-05-24T10:24:59.626Z,1025
2023-05-24T10:29:59.800Z,1024.9
2023-05-24T10:35:00.385Z,1025
2023-05-24T10:39:59.515Z,1024.9
2023-05-24T10:44:59.902Z,1024.9
2023-05-24T10:49:59.513Z,1025
2023-05-24T10:55:04.281Z,1024.9
2023-05-24T10:59:59.771Z,1024.8
2023-05-24T11:05:04.071Z,1024.9
2023-05-24T11:10:02.420Z,1024.8
2023-05-24T11:14:59.811Z,1024.8
2023-05-24T11:20:00.925Z,1024.8
2023-05-24T11:24:59.693Z,1024.9
2023-05-24T11:29:59.821Z,1024.9
2023-05-24T11:34:59.628Z,1024.9
2023-05-24T11:40:01.397Z,1024.9
2023-05-24T11:44:59.758Z,1024.9
2023-05-24T11:49:59.874Z,1024.9
2023-05-24T11:54:59.752Z,1024.9
2023-05-24T11:59:59.872Z,1024.9
2023-05-24T12:04:59.612Z,1024.9
2023-05-24T12:09:59.902Z,1024.9
2023-05-24T12:14:59.587Z,1024.8
2023-05-24T12:19:59.773Z,1024.8
2023-05-24T12:24:59.432Z,1024.8
2023-05-24T12:30:05.153Z,1024.7
2023-05-24T12:35:02.982Z,1024.7
2023-05-24T12:39:59.836Z,1024.7
2023-05-24T12:44:59.906Z,1024.7
2023-05-24T12:49:59.546Z,1024.7
2023-05-24T12:54:59.804Z,1024.7
2023-05-24T12:59:59.726Z,1024.8
2023-05-24T13:04:59.626Z,1024.8
2023-05-24T13:09:59.492Z,1024.8
2023-05-24T13:14:59.680Z,1024.8
2023-05-24T13:19:59.468Z,1024.8
2023-05-24T13:24:59.402Z,1024.9
2023-05-24T13:30:01.236Z,1024.9
2023-05-24T13:34:59.998Z,1024.9
2023-05-24T13:39:59.700Z,1024.8
2023-05-24T13:44:59.445Z,1024.8
2023-05-24T13:49:59.729Z,1024.8
2023-05-24T13:54:59.673Z,1024.7
2023-05-24T14:00:00.111Z,1024.8
2023-05-24T14:05:12.943Z,1024.7
2023-05-24T14:09:59.806Z,1024.7
2023-05-24T14:15:00.451Z,1024.7
2023-05-24T14:19:59.568Z,1024.7
2023-05-24T14:24:59.355Z,1024.8
2023-05-24T14:29:59.536Z,1024.7
2023-05-24T14:34:59.324Z,1024.7
2023-05-24T14:40:00.186Z,1024.7
2023-05-24T14:44:59.805Z,1024.6
2023-05-24T14:49:59.399Z,1024.7
2023-05-24T14:54:59.639Z,1024.7
2023-05-24T14:59:59.690Z,1024.8
2023-05-24T15:04:59.402Z,1024.7
2023-05-24T15:09:59.542Z,1024.6
2023-05-24T15:14:59.396Z,1024.7
2023-05-24T15:19:59.494Z,1024.7
2023-05-24T15:24:59.434Z,1024.7
2023-05-24T15:29:59.933Z,1024.7
2023-05-24T15:34:59.648Z,1024.7
2023-05-24T15:39:59.567Z,1024.7
2023-05-24T15:44:59.416Z,1024.7
2023-05-24T15:49:59.768Z,1024.7
2023-05-24T15:54:59.560Z,1024.8
2023-05-24T15:59:59.383Z,1024.8
2023-05-24T16:04:59.592Z,1024.7
2023-05-24T16:09:59.562Z,1024.8
2023-05-24T16:14:59.320Z,1024.8
2023-05-24T16:19:59.588Z,1024.8
2023-05-24T16:24:59.302Z,1024.7
2023-05-24T16:29:59.733Z,1024.7
2023-05-24T16:34:59.761Z,1024.7
2023-05-24T16:39:59.392Z,1024.6
2023-05-24T16:44:59.316Z,1024.6
2023-05-24T16:49:59.395Z,1024.5
2023-05-24T16:54:59.467Z,1024.5
2023-05-24T16:59:59.446Z,1024.6
2023-05-24T17:04:59.378Z,1024.6
2023-05-24T17:09:59.540Z,1024.6
2023-05-24T17:14:59.255Z,1024.6
2023-05-24T17:19:59.349Z,1024.5
2023-05-24T17:24:59.414Z,1024.5
2023-05-24T17:29:59.354Z,1024.5
2023-05-24T17:34:59.259Z,1024.5
2023-05-24T17:39:59.328Z,1024.6
2023-05-24T17:44:59.220Z,1024.5
2023-05-24T17:49:59.501Z,1024.6
2023-05-24T17:54:59.246Z,1024.6
2023-05-24T17:59:59.389Z,1024.7
2023-05-24T18:04:59.388Z,1024.7
2023-05-24T18:10:00.589Z,1024.8
2023-05-24T18:14:59.440Z,1024.8
2023-05-24T18:19:59.488Z,1024.8
2023-05-24T18:24:59.256Z,1024.9
2023-05-24T18:30:00.760Z,1024.9
2023-05-24T18:35:00.398Z,1024.8
2023-05-24T18:40:00.403Z,1024.8
2023-05-24T18:45:00.411Z,1024.9
2023-05-24T18:50:00.323Z,1024.9
2023-05-24T18:55:00.926Z,1024.9
2023-05-24T19:00:00.772Z,1025
2023-05-24T19:05:00.371Z,1025.1
2023-05-24T19:10:01.043Z,1025.1
2023-05-24T19:15:00.300Z,1025.1
2023-05-24T19:20:01.094Z,1025.2
2023-05-24T19:25:00.358Z,1025.2
2023-05-24T19:30:00.583Z,1025.3
2023-05-24T19:35:00.388Z,1025.3
2023-05-24T19:40:00.578Z,1025.3
2023-05-24T19:45:00.357Z,1025.4
2023-05-24T19:50:00.472Z,1025.4
2023-05-24T19:55:00.316Z,1025.5
2023-05-24T20:00:01.781Z,1025.5
2023-05-24T20:05:00.383Z,1025.6
2023-05-24T20:10:00.559Z,1025.6
2023-05-24T20:15:00.452Z,1025.6
2023-05-24T20:20:00.665Z,1025.6
2023-05-24T20:25:00.512Z,1025.7
2023-05-24T20:30:00.486Z,1025.7
2023-05-24T20:35:00.315Z,1025.7
2023-05-24T20:40:00.376Z,1025.8
2023-05-24T20:45:00.270Z,1025.8
2023-05-24T20:50:00.357Z,1025.9
2023-05-24T20:55:00.529Z,1025.9
2023-05-24T21:00:00.446Z,1025.8
2023-05-24T21:05:00.642Z,1025.9
2023-05-24T21:10:00.481Z,1025.9
2023-05-24T21:15:00.328Z,1025.9
2023-05-24T21:20:00.587Z,1025.9
2023-05-24T21:25:00.320Z,1025.9
2023-05-24T21:30:00.349Z,1026
2023-05-24T21:35:00.643Z,1026
2023-05-24T21:40:00.508Z,1026.1
2023-05-24T21:45:00.353Z,1026.1
2023-05-24T21:50:00.406Z,1026.2
2023-05-24T21:55:00.677Z,1026.2
2023-05-24T22:00:00.509Z,1026.3
2023-05-24T22:05:00.325Z,1026.3
2023-05-24T22:10:00.593Z,1026.4
2023-05-24T22:15:00.193Z,1026.3
2023-05-24T22:20:00.310Z,1026.4
2023-05-24T22:25:00.463Z,1026.4
2023-05-24T22:30:00.109Z,1026.4
2023-05-24T22:35:00.692Z,1026.3
2023-05-24T22:40:00.596Z,1026.3
2023-05-24T22:45:00.353Z,1026.3
2023-05-24T22:50:00.426Z,1026.3
2023-05-24T22:55:00.167Z,1026.3
2023-05-24T23:00:00.187Z,1026.4
2023-05-24T23:05:00.920Z,1026.4
2023-05-24T23:10:00.156Z,1026.4
2023-05-24T23:15:00.341Z,1026.5
2023-05-24T23:20:00.364Z,1026.5
2023-05-24T23:25:00.354Z,1026.5
2023-05-24T23:30:00.168Z,1026.5
2023-05-24T23:35:00.415Z,1026.5
2023-05-24T23:40:00.586Z,1026.5
2023-05-24T23:45:00.680Z,1026.4
2023-05-24T23:50:00.289Z,1026.4
2023-05-24T23:55:00.029Z,1026.5
